Time;durP1;ratioP1;P1;durP2;ratioP2;P2;SDS_P1;SDS_P2;PMS_P1;PMS_P2;Temp;Humidity;BMP_temperature;BMP_pressure;BME280_temperature;BME280_humidity;BME280_pressure;Samples;Min_cycle;Max_cycle;Signal;HPM_P1;HPM_P2
2021/10/23 00:00:58;;;;;;;4.03;0.90;;;;;;;10.72;69.45;101330.03;4901181;29;20082;-75
2021/10/23 00:03:23;;;;;;;1.65;1.08;;;;;;;10.71;69.40;101333.84;4906582;29;20493;-76
2021/10/23 00:05:49;;;;;;;0.80;0.57;;;;;;;10.75;69.85;101335.03;4936453;28;20058;-75
2021/10/23 00:08:14;;;;;;;1.20;1.10;;;;;;;10.76;69.41;101336.66;4934526;29;20063;-77
2021/10/23 00:10:40;;;;;;;1.50;0.75;;;;;;;10.71;69.48;101339.31;4901529;29;20043;-75
2021/10/23 00:13:05;;;;;;;1.88;0.88;;;;;;;10.73;70.01;101340.75;4932039;29;20450;-75
2021/10/23 00:15:32;;;;;;;2.85;1.23;;;;;;;10.69;69.69;101335.97;4930946;29;20024;-77
2021/10/23 00:17:57;;;;;;;7.40;1.27;;;;;;;10.65;69.92;101320.06;4935403;29;20035;-75
2021/10/23 00:20:23;;;;;;;2.33;1.00;;;;;;;10.71;69.48;101321.00;4912058;29;20035;-78
2021/10/23 00:22:49;;;;;;;1.55;1.10;;;;;;;10.64;69.94;101302.00;4918929;29;20031;-74
2021/10/23 00:25:15;;;;;;;1.13;1.05;;;;;;;10.72;69.19;101321.81;4922385;29;20059;-74
2021/10/23 00:27:40;;;;;;;0.82;0.75;;;;;;;10.76;69.46;101320.25;4931911;29;20024;-76
2021/10/23 00:30:06;;;;;;;0.57;0.52;;;;;;;10.76;69.66;101310.16;4933450;29;20036;-75
2021/10/23 00:32:32;;;;;;;0.52;0.52;;;;;;;10.77;69.25;101316.44;4918362;29;20457;-75
2021/10/23 00:34:59;;;;;;;2.03;0.68;;;;;;;10.74;69.48;101317.75;4921218;29;20059;-75
2021/10/23 00:37:25;;;;;;;0.70;0.70;;;;;;;10.76;69.25;101321.09;4930541;29;20024;-74
2021/10/23 00:39:50;;;;;;;0.55;0.55;;;;;;;10.76;69.60;101317.53;4930893;29;20043;-74
2021/10/23 00:42:16;;;;;;;0.90;0.68;;;;;;;10.76;69.65;101321.09;4932875;29;20032;-74
2021/10/23 00:44:42;;;;;;;1.15;0.65;;;;;;;10.77;69.16;101309.06;4910194;29;20032;-74
2021/10/23 00:47:11;;;;;;;1.63;0.77;;;;;;;10.76;69.35;101303.84;4932427;29;20477;-74
2021/10/23 00:49:38;;;;;;;2.20;0.57;;;;;;;10.77;69.54;101313.72;4928358;29;20032;-74
2021/10/23 00:52:05;;;;;;;0.95;0.80;;;;;;;10.78;69.59;101312.66;4921829;29;20040;-75
2021/10/23 00:54:31;;;;;;;0.82;0.73;;;;;;;10.77;69.16;101316.44;4929424;29;20523;-75
2021/10/23 00:56:57;;;;;;;0.70;0.70;;;;;;;10.79;69.47;101319.75;4935487;29;20023;-75
2021/10/23 00:59:23;;;;;;;2.47;0.70;;;;;;;10.78;69.31;101323.59;4931465;29;20078;-74
2021/10/23 01:01:49;;;;;;;1.48;0.75;;;;;;;10.79;68.88;101327.97;4930175;29;20047;-76
2021/10/23 01:04:18;;;;;;;13.27;1.02;;;;;;;10.76;69.97;101325.72;4913717;29;20134;-76
2021/10/23 01:06:44;;;;;;;1.63;0.93;;;;;;;10.73;70.08;101320.75;4924751;29;20461;-75
2021/10/23 01:09:10;;;;;;;3.70;0.68;;;;;;;10.71;69.92;101331.13;4914620;29;20036;-75
2021/10/23 01:11:36;;;;;;;0.80;0.65;;;;;;;10.70;69.85;101324.78;4930048;29;20091;-75
2021/10/23 01:14:01;;;;;;;1.88;1.25;;;;;;;10.70;69.95;101329.44;4929120;29;20115;-75
2021/10/23 01:16:27;;;;;;;0.90;0.43;;;;;;;10.63;70.08;101322.22;4925797;29;20028;-75
2021/10/23 01:18:52;;;;;;;1.23;0.60;;;;;;;10.60;69.93;101322.72;4911855;29;20048;-74
2021/10/23 01:21:23;;;;;;;1.08;0.98;;;;;;;10.61;70.21;101313.41;4924885;29;20070;-73
2021/10/23 01:23:49;;;;;;;2.80;0.90;;;;;;;10.61;70.01;101318.88;4939976;29;21000;-73
2021/10/23 01:26:15;;;;;;;4.45;1.98;;;;;;;10.61;70.05;101316.16;4918149;29;20059;-74
2021/10/23 01:28:40;;;;;;;3.08;1.13;;;;;;;10.60;70.01;101311.78;4898122;29;20504;-74
2021/10/23 01:31:06;;;;;;;6.28;0.50;;;;;;;10.62;70.13;101317.81;4915729;29;20034;-74
2021/10/23 01:33:33;;;;;;;2.38;1.00;;;;;;;10.59;69.73;101310.09;4929036;29;20035;-73
2021/10/23 01:36:08;;;;;;;1.23;0.90;;;;;;;10.60;70.13;101317.25;4906864;29;20035;-74
2021/10/23 01:38:34;;;;;;;1.10;0.43;;;;;;;10.63;69.95;101319.50;4902315;29;20395;-75
2021/10/23 01:41:00;;;;;;;0.82;0.77;;;;;;;10.61;69.68;101318.88;4897576;29;20032;-75
2021/10/23 01:43:25;;;;;;;3.53;1.10;;;;;;;10.63;69.85;101319.50;4882730;29;20052;-75
2021/10/23 01:45:50;;;;;;;2.58;0.90;;;;;;;10.63;70.21;101322.22;4887715;29;20041;-78
2021/10/23 01:48:16;;;;;;;0.77;0.57;;;;;;;10.67;69.63;101324.47;4877375;29;20024;-79
2021/10/23 01:50:44;;;;;;;0.82;0.60;;;;;;;10.67;69.99;101321.72;4898714;29;20382;-79
2021/10/23 01:53:10;;;;;;;1.02;0.90;;;;;;;10.65;69.80;101308.31;4892823;29;20037;-78
2021/10/23 01:55:35;;;;;;;2.90;0.75;;;;;;;10.71;69.71;101317.44;4881087;29;20168;-76
2021/10/23 01:58:00;;;;;;;1.38;0.82;;;;;;;10.75;69.13;101318.63;4889041;29;20128;-78
2021/10/23 02:00:26;;;;;;;2.38;0.85;;;;;;;10.75;69.52;101313.16;4894592;29;20068;-78
2021/10/23 02:02:52;;;;;;;4.85;0.85;;;;;;;10.75;69.22;101318.63;4892458;29;20039;-77
2021/10/23 02:05:17;;;;;;;3.40;0.90;;;;;;;10.75;69.35;101302.19;4897011;29;20446;-77
2021/10/23 02:07:43;;;;;;;0.32;0.30;;;;;;;10.77;69.12;101313.72;4910575;29;20390;-77
2021/10/23 02:10:08;;;;;;;1.50;0.63;;;;;;;10.74;68.86;101317.75;4906913;29;20070;-77
2021/10/23 02:12:35;;;;;;;4.43;0.52;;;;;;;10.76;69.32;101314.78;4888541;29;20076;-76
2021/10/23 02:15:01;;;;;;;0.95;0.65;;;;;;;10.76;68.96;101309.31;4905419;29;20036;-77
2021/10/23 02:17:26;;;;;;;1.20;0.60;;;;;;;10.77;69.19;101314.53;4877711;29;20083;-78
2021/10/23 02:19:52;;;;;;;1.90;1.13;;;;;;;10.73;69.16;101301.59;4895409;29;20498;-77
2021/10/23 02:22:17;;;;;;;1.02;0.40;;;;;;;10.79;68.87;101309.66;4890733;29;20064;-77
2021/10/23 02:24:43;;;;;;;0.68;0.68;;;;;;;10.81;69.17;101312.16;4893442;29;20028;-76
2021/10/23 02:27:09;;;;;;;0.40;0.40;;;;;;;10.81;68.97;101306.69;4891998;29;20057;-76
2021/10/23 02:29:34;;;;;;;0.75;0.70;;;;;;;10.81;69.00;101301.22;4891290;29;20711;-75
2021/10/23 02:32:00;;;;;;;0.70;0.43;;;;;;;10.79;68.82;101304.19;4894206;29;20064;-75
2021/10/23 02:34:28;;;;;;;0.55;0.52;;;;;;;10.79;69.08;101304.19;4890489;29;20104;-76
2021/10/23 02:36:56;;;;;;;0.75;0.47;;;;;;;10.80;69.36;101308.56;4890085;29;20111;-75
2021/10/23 02:39:21;;;;;;;0.57;0.57;;;;;;;10.82;69.14;101302.88;4868343;29;20057;-75
2021/10/23 02:41:47;;;;;;;4.20;0.80;;;;;;;10.77;69.28;101294.56;4894787;29;20044;-76
2021/10/23 02:44:12;;;;;;;2.63;0.85;;;;;;;10.75;69.54;101294.00;4875419;29;20036;-75
2021/10/23 02:46:38;;;;;;;0.45;0.45;;;;;;;10.76;69.79;101295.63;4890830;29;20028;-80
2021/10/23 02:49:05;;;;;;;0.95;0.63;;;;;;;10.73;69.74;101294.25;4874199;29;20038;-75
2021/10/23 02:51:30;;;;;;;0.60;0.47;;;;;;;10.72;69.49;101297.19;4879723;29;20032;-77
2021/10/23 02:53:56;;;;;;;3.08;0.80;;;;;;;10.70;69.80;101300.19;4868271;29;20028;-76
2021/10/23 02:56:21;;;;;;;0.60;0.60;;;;;;;10.69;69.58;101294.94;4905504;29;20360;-76
2021/10/23 02:58:47;;;;;;;0.60;0.57;;;;;;;10.65;69.38;101283.69;4884855;29;20399;-77
2021/10/23 03:01:13;;;;;;;1.35;0.50;;;;;;;10.69;70.08;101287.59;4903002;29;20112;-77
2021/10/23 03:03:38;;;;;;;0.38;0.38;;;;;;;10.65;69.92;101289.97;4903794;29;20051;-76
2021/10/23 03:06:04;;;;;;;2.58;0.55;;;;;;;10.68;69.32;101279.63;4895925;29;20032;-76
2021/10/23 03:08:38;;;;;;;3.30;0.38;;;;;;;10.68;69.87;101274.16;4891653;29;20037;-76
2021/10/23 03:11:14;;;;;;;;;;;;;;;;;;;;;
2021/10/23 03:14:10;;;;;;;;;;;;;;;;;;;;;
2021/10/23 03:16:45;;;;;;;5.28;0.43;;;;;;;10.71;69.77;101270.94;4895513;29;20467;-78
2021/10/23 03:19:23;;;;;;;;;;;;;;;;;;;;;
2021/10/23 03:21:52;;;;;;;1.30;0.50;;;;;;;10.72;69.28;101275.31;4887530;29;20378;-77
2021/10/23 03:24:17;;;;;;;0.40;0.40;;;;;;;10.75;69.60;101272.09;4895462;29;20048;-77
2021/10/23 03:26:43;;;;;;;0.73;0.30;;;;;;;10.77;69.27;101278.16;4879558;29;20033;-79
2021/10/23 03:29:39;;;;;;;0.60;0.60;;;;;;;10.84;69.59;101278.81;4899552;29;20021;-78
2021/10/23 03:32:12;;;;;;;4.00;0.40;;;;;;;10.69;69.29;101253.91;4894827;29;20383;-77
2021/10/23 03:34:37;;;;;;;0.95;0.52;;;;;;;10.83;69.28;101277.16;4908535;29;20123;-76
2021/10/23 03:37:03;;;;;;;3.08;0.70;;;;;;;10.85;69.50;101280.50;4901328;29;20120;-78
2021/10/23 03:39:31;;;;;;;1.00;0.73;;;;;;;10.77;69.32;101267.22;4874910;29;20049;-76
2021/10/23 03:42:04;;;;;;;0.68;0.68;;;;;;;10.74;69.88;101265.78;4888562;29;20135;-75
2021/10/23 03:44:37;;;;;;;1.25;0.73;;;;;;;10.67;69.64;101256.91;4884311;29;20604;-76
2021/10/23 03:47:05;;;;;;;1.50;0.68;;;;;;;10.72;69.69;101258.91;4890637;29;20036;-75
2021/10/23 03:49:40;;;;;;;;;;;;;;;;;;;;;
2021/10/23 03:52:06;;;;;;;0.57;0.50;;;;;;;10.72;69.57;101253.41;4890165;29;20029;-76
2021/10/23 03:54:32;;;;;;;1.38;0.50;;;;;;;10.77;69.67;101261.72;4905170;29;20036;-75
2021/10/23 03:57:00;;;;;;;1.13;0.47;;;;;;;10.80;69.54;101261.25;4893922;29;20072;-75
2021/10/23 03:59:33;;;;;;;0.50;0.40;;;;;;;10.83;69.90;101271.69;4858082;29;20044;-74
2021/10/23 04:01:59;;;;;;;0.38;0.38;;;;;;;10.82;69.84;101264.56;4890152;29;20040;-75
2021/10/23 04:04:36;;;;;;;1.35;0.60;;;;;;;10.73;69.61;101249.63;4884866;29;20084;-76
2021/10/23 04:07:05;;;;;;;4.13;0.73;;;;;;;10.80;69.75;101269.44;4889073;29;20069;-75
2021/10/23 04:09:40;;;;;;;;;;;;;;;;;;;;;
2021/10/23 04:12:09;;;;;;;0.70;0.40;;;;;;;10.82;69.52;101270.06;4883252;29;20340;-74
2021/10/23 04:14:49;;;;;;;0.60;0.60;;;;;;;10.77;69.90;101256.25;4907835;29;20032;-74
2021/10/23 04:17:15;;;;;;;0.50;0.50;;;;;;;10.70;69.37;101255.59;4887818;29;20021;-73
2021/10/23 04:19:40;;;;;;;0.57;0.50;;;;;;;10.78;69.63;101264.22;4893881;29;21259;-74
2021/10/23 04:22:07;;;;;;;1.55;0.60;;;;;;;10.74;69.83;101257.56;4869891;29;20123;-76
2021/10/23 04:24:32;;;;;;;0.38;0.38;;;;;;;10.74;69.98;101260.31;4887904;29;20029;-77
2021/10/23 04:26:58;;;;;;;0.88;0.88;;;;;;;10.72;69.90;101258.91;4876669;29;20085;-76
2021/10/23 04:29:23;;;;;;;1.05;0.75;;;;;;;10.70;69.71;101255.59;4884776;29;20109;-77
2021/10/23 04:31:52;;;;;;;0.40;0.40;;;;;;;10.77;69.81;101262.56;4892625;29;20080;-75
2021/10/23 04:34:17;;;;;;;0.40;0.40;;;;;;;10.64;69.49;101250.03;4887782;29;20032;-73
2021/10/23 04:36:45;;;;;;;2.05;0.30;;;;;;;10.77;69.81;101262.56;4886745;29;20033;-76
2021/10/23 04:39:11;;;;;;;0.50;0.50;;;;;;;10.75;70.12;101263.91;4887269;29;20049;-75
2021/10/23 04:41:37;;;;;;;0.70;0.40;;;;;;;10.81;69.70;101282.06;4889029;29;20043;-75
2021/10/23 04:44:03;;;;;;;0.65;0.47;;;;;;;10.74;69.96;101268.53;4889953;29;20053;-76
2021/10/23 04:46:28;;;;;;;0.60;0.60;;;;;;;10.82;70.01;101281.00;4889309;29;20063;-74
2021/10/23 04:48:56;;;;;;;0.50;0.40;;;;;;;10.76;69.94;101268.28;4892276;29;20167;-75
2021/10/23 04:51:21;;;;;;;0.77;0.40;;;;;;;10.77;69.56;101275.41;4880625;29;20037;-75
2021/10/23 04:53:48;;;;;;;1.23;0.50;;;;;;;10.81;69.97;101282.06;4903622;29;20032;-75
2021/10/23 04:56:21;;;;;;;2.22;0.50;;;;;;;10.76;69.81;101265.53;4892191;29;20036;-76
2021/10/23 04:58:47;;;;;;;2.10;0.38;;;;;;;10.81;69.50;101271.13;4890065;29;20464;-77
2021/10/23 05:01:15;;;;;;;0.50;0.50;;;;;;;10.77;69.65;101268.03;4892667;29;20755;-75
2021/10/23 05:03:41;;;;;;;0.40;0.40;;;;;;;10.75;69.65;101258.44;4891914;29;20027;-74
2021/10/23 05:06:08;;;;;;;0.52;0.50;;;;;;;10.78;69.28;101266.97;4876669;29;20033;-77
2021/10/23 05:08:34;;;;;;;0.30;0.30;;;;;;;10.74;69.48;101256.75;4887765;29;20032;-76
2021/10/23 05:10:59;;;;;;;0.40;0.30;;;;;;;10.86;69.37;101273.91;4894891;29;20092;-75
2021/10/23 05:13:25;;;;;;;1.45;0.32;;;;;;;10.87;69.26;101274.78;4910782;29;20922;-75
2021/10/23 05:15:50;;;;;;;0.40;0.32;;;;;;;10.83;69.60;101267.06;4896549;29;20035;-74
2021/10/23 05:18:16;;;;;;;4.05;0.50;;;;;;;10.86;69.68;101270.38;4889180;29;20677;-76
2021/10/23 05:20:42;;;;;;;0.38;0.38;;;;;;;10.87;69.32;101272.03;4891588;29;20036;-74
2021/10/23 05:23:08;;;;;;;1.45;0.40;;;;;;;10.87;69.22;101267.38;4890077;29;20036;-74
2021/10/23 05:25:33;;;;;;;0.20;0.20;;;;;;;10.88;68.95;101271.78;4894918;29;20094;-74
2021/10/23 05:27:59;;;;;;;0.35;0.30;;;;;;;10.88;69.50;101268.19;4879747;29;20032;-74
2021/10/23 05:30:24;;;;;;;2.10;1.23;;;;;;;10.85;68.72;101264.06;4893463;29;20036;-75
2021/10/23 05:32:50;;;;;;;0.32;0.30;;;;;;;10.95;68.99;101266.13;4893569;29;20039;-75
2021/10/23 05:35:18;;;;;;;0.30;0.30;;;;;;;10.94;68.55;101262.59;4897496;29;20021;-75
2021/10/23 05:37:46;;;;;;;0.63;0.43;;;;;;;10.95;68.77;101255.19;4894337;29;20419;-75
2021/10/23 05:40:14;;;;;;;0.43;0.43;;;;;;;11.03;68.26;101265.72;4912386;29;20770;-75
2021/10/23 05:42:39;;;;;;;0.50;0.30;;;;;;;11.07;68.23;101266.06;4905461;29;20563;-76
2021/10/23 05:45:05;;;;;;;0.10;0.10;;;;;;;11.10;68.28;101276.53;4914178;29;20163;-76
2021/10/23 05:47:31;;;;;;;0.30;0.30;;;;;;;11.14;68.03;101272.19;4915291;29;20028;-77
2021/10/23 05:49:56;;;;;;;0.10;0.00;;;;;;;11.15;68.14;101265.66;4914593;29;20055;-76
2021/10/23 05:52:22;;;;;;;0.00;0.00;;;;;;;11.18;68.23;101263.25;4909494;29;20036;-76
2021/10/23 05:54:47;;;;;;;0.10;0.00;;;;;;;11.22;68.29;101269.06;4910558;29;20032;-76
2021/10/23 05:57:13;;;;;;;0.10;0.05;;;;;;;11.23;68.00;101262.50;4902996;29;20076;-74
2021/10/23 05:59:46;;;;;;;0.10;0.10;;;;;;;11.26;68.03;101270.22;4920205;29;20024;-75
2021/10/23 06:02:25;;;;;;;0.20;0.00;;;;;;;11.28;68.16;101261.75;4923529;29;20020;-76
2021/10/23 06:05:02;;;;;;;0.20;0.20;;;;;;;11.30;68.36;101265.06;4925666;29;20004;-76
2021/10/23 06:07:38;;;;;;;0.10;0.10;;;;;;;11.26;68.00;101264.75;4926892;29;20099;-74
2021/10/23 06:10:06;;;;;;;0.10;0.10;;;;;;;11.24;67.34;101264.13;4918854;29;20382;-74
2021/10/23 06:12:33;;;;;;;0.15;0.10;;;;;;;11.26;68.12;101270.22;4916757;29;20031;-74
2021/10/23 06:14:59;;;;;;;0.22;0.20;;;;;;;11.25;67.77;101263.06;4912062;29;20067;-74
2021/10/23 06:17:24;;;;;;;0.10;0.10;;;;;;;11.24;67.81;101272.34;4910315;29;20063;-74
2021/10/23 06:19:50;;;;;;;0.00;0.00;;;;;;;11.26;68.20;101272.13;4910221;29;20047;-74
2021/10/23 06:22:16;;;;;;;0.10;0.10;;;;;;;11.27;67.49;101271.88;4911329;29;20119;-75
2021/10/23 06:24:42;;;;;;;0.00;0.00;;;;;;;11.29;68.15;101269.72;4913072;29;20477;-76
2021/10/23 06:27:08;;;;;;;0.00;0.00;;;;;;;11.27;67.95;101265.56;4913497;29;20028;-75
2021/10/23 06:29:36;;;;;;;0.00;0.00;;;;;;;11.26;68.20;101270.22;4897932;29;20032;-79
2021/10/23 06:32:03;;;;;;;0.00;0.00;;;;;;;11.29;67.58;101275.19;4905813;29;20111;-80
2021/10/23 06:34:31;;;;;;;0.30;0.20;;;;;;;11.22;68.02;101263.56;4910217;29;20042;-78
2021/10/23 06:36:57;;;;;;;0.10;0.10;;;;;;;11.24;67.54;101277.81;4913565;29;20531;-74
2021/10/23 06:39:22;;;;;;;0.30;0.20;;;;;;;11.21;67.62;101261.91;4917887;29;20055;-74
2021/10/23 06:41:55;;;;;;;0.20;0.17;;;;;;;11.19;67.56;101258.59;4930151;29;20047;-76
2021/10/23 06:44:20;;;;;;;0.10;0.10;;;;;;;11.21;67.24;101264.66;4925953;29;20087;-78
2021/10/23 06:46:46;;;;;;;0.20;0.10;;;;;;;11.23;67.89;101265.25;4923718;29;20044;-74
2021/10/23 06:49:11;;;;;;;0.00;0.00;;;;;;;11.29;67.78;101277.94;4932922;29;20032;-77
2021/10/23 06:51:37;;;;;;;0.20;0.00;;;;;;;11.29;68.09;101277.09;4930795;29;20074;-77
2021/10/23 06:54:04;;;;;;;0.13;0.10;;;;;;;11.31;67.49;101277.66;4924293;29;20415;-77
2021/10/23 06:56:29;;;;;;;0.10;0.10;;;;;;;11.30;68.00;101279.59;4928380;29;20394;-77
2021/10/23 06:58:55;;;;;;;0.00;0.00;;;;;;;11.34;67.62;101282.66;4930657;29;20039;-75
2021/10/23 07:01:22;;;;;;;0.00;0.00;;;;;;;11.36;67.37;101285.97;4910404;29;20067;-77
2021/10/23 07:03:48;;;;;;;0.10;0.00;;;;;;;11.37;67.70;101284.88;4925466;29;20047;-78
2021/10/23 07:06:13;;;;;;;0.00;0.00;;;;;;;11.41;67.58;101293.44;4915319;29;20143;-75
2021/10/23 07:08:39;;;;;;;0.32;0.10;;;;;;;11.43;67.72;101288.53;4914312;29;20028;-76
2021/10/23 07:11:05;;;;;;;0.08;0.00;;;;;;;11.41;67.52;101277.00;4925392;29;20032;-77
2021/10/23 07:13:30;;;;;;;0.00;0.00;;;;;;;11.46;67.71;101279.81;4927780;29;20386;-75
2021/10/23 07:15:56;;;;;;;0.10;0.10;;;;;;;11.47;66.96;101281.47;4933445;29;20149;-76
2021/10/23 07:18:22;;;;;;;0.10;0.10;;;;;;;11.54;67.14;101287.59;4921638;29;20110;-76
2021/10/23 07:20:47;;;;;;;0.00;0.00;;;;;;;11.57;67.36;101287.09;4937152;29;20100;-76
2021/10/23 07:23:13;;;;;;;0.00;0.00;;;;;;;11.60;67.26;101297.56;4923182;29;20024;-77
2021/10/23 07:25:38;;;;;;;0.00;0.00;;;;;;;11.59;67.54;101290.41;4914103;29;20028;-78
2021/10/23 07:28:04;;;;;;;0.00;0.00;;;;;;;11.62;67.44;101289.94;4931383;29;20074;-77
2021/10/23 07:30:30;;;;;;;0.00;0.00;;;;;;;11.63;67.13;101291.56;4929557;29;20373;-78
2021/10/23 07:32:55;;;;;;;0.20;0.15;;;;;;;11.68;67.15;101299.88;4912163;29;20070;-76
2021/10/23 07:35:21;;;;;;;0.90;0.20;;;;;;;11.67;66.73;101291.91;4931453;29;20035;-79
2021/10/23 07:37:47;;;;;;;0.20;0.20;;;;;;;11.73;66.74;101306.50;4929299;29;20363;-78
2021/10/23 07:40:14;;;;;;;0.20;0.20;;;;;;;11.74;66.17;101297.19;4899239;29;20084;-77
2021/10/23 07:42:40;;;;;;;0.20;0.17;;;;;;;11.78;66.74;101306.56;4917439;29;20042;-78
2021/10/23 07:45:09;;;;;;;0.15;0.15;;;;;;;11.77;66.53;101304.91;4933349;29;20027;-78
2021/10/23 07:47:38;;;;;;;0.20;0.20;;;;;;;11.84;66.71;101311.03;4901472;29;20023;-75
2021/10/23 07:50:06;;;;;;;0.10;0.10;;;;;;;11.84;66.45;101305.56;4942130;29;20031;-77
2021/10/23 07:52:31;;;;;;;0.10;0.10;;;;;;;11.87;66.85;101299.56;4913739;29;20031;-77
2021/10/23 07:54:56;;;;;;;0.22;0.10;;;;;;;11.99;66.81;101308.53;4920236;29;20039;-75
2021/10/23 07:57:22;;;;;;;0.28;0.20;;;;;;;12.01;66.12;101308.28;4927993;29;20035;-80
2021/10/23 07:59:48;;;;;;;0.00;0.00;;;;;;;12.08;66.50;101319.09;4929628;29;20066;-78
2021/10/23 08:02:13;;;;;;;0.20;0.20;;;;;;;12.07;66.32;101306.44;4909852;29;20032;-75
2021/10/23 08:04:39;;;;;;;0.10;0.10;;;;;;;12.15;66.73;101314.22;4926186;29;21349;-77
2021/10/23 08:07:10;;;;;;;0.20;0.17;;;;;;;12.20;66.46;101319.78;4914054;29;20035;-77
2021/10/23 08:09:36;;;;;;;0.08;0.08;;;;;;;12.26;66.02;101312.44;4928628;29;20347;-79
2021/10/23 08:12:03;;;;;;;0.10;0.10;;;;;;;12.32;66.37;101320.47;4913814;29;20066;-75
2021/10/23 08:14:29;;;;;;;0.10;0.10;;;;;;;12.35;65.98;101311.75;4922196;29;20420;-76
2021/10/23 08:16:56;;;;;;;0.10;0.10;;;;;;;12.47;66.33;101324.47;4926049;29;20071;-78
2021/10/23 08:19:21;;;;;;;0.00;0.00;;;;;;;12.51;65.97;101326.47;4927254;29;20047;-77
2021/10/23 08:21:47;;;;;;;0.00;0.00;;;;;;;12.56;66.08;101322.94;4934884;29;20040;-76
2021/10/23 08:24:12;;;;;;;0.10;0.10;;;;;;;12.60;65.91;101320.50;4914222;29;20382;-77
2021/10/23 08:26:39;;;;;;;0.10;0.10;;;;;;;12.67;65.42;101330.19;4915519;29;20024;-78
2021/10/23 08:29:07;;;;;;;0.22;0.20;;;;;;;12.66;65.67;101325.81;4929821;29;20032;-77
2021/10/23 08:31:33;;;;;;;0.10;0.10;;;;;;;12.68;65.44;101312.63;4930371;29;20024;-78
2021/10/23 08:34:00;;;;;;;0.15;0.10;;;;;;;12.71;65.09;101316.78;4923377;29;20112;-77
2021/10/23 08:36:27;;;;;;;0.10;0.10;;;;;;;12.81;65.63;101333.34;4936783;29;20419;-76
2021/10/23 08:38:53;;;;;;;0.43;0.20;;;;;;;12.82;64.87;101323.19;4932213;29;20044;-77
2021/10/23 08:41:18;;;;;;;1.73;0.40;;;;;;;12.89;64.97;101334.81;4939706;29;20027;-77
2021/10/23 08:43:45;;;;;;;0.20;0.10;;;;;;;12.85;64.54;101318.03;4940987;29;20055;-79
2021/10/23 08:46:18;;;;;;;0.20;0.20;;;;;;;12.89;64.44;101323.81;4935439;29;20040;-77
2021/10/23 08:48:46;;;;;;;5.10;0.30;;;;;;;12.90;64.28;101329.03;4920038;29;20043;-76
2021/10/23 08:51:15;;;;;;;0.22;0.10;;;;;;;12.91;63.82;101327.97;4938243;29;20051;-77
2021/10/23 08:53:41;;;;;;;0.40;0.38;;;;;;;12.97;64.13;101341.75;4933679;29;20035;-77
2021/10/23 08:56:08;;;;;;;0.30;0.30;;;;;;;12.97;64.18;101337.09;4922992;29;20032;-78
2021/10/23 08:58:38;;;;;;;0.63;0.28;;;;;;;13.05;63.71;101339.38;4946090;29;20031;-78
2021/10/23 09:01:05;;;;;;;0.32;0.30;;;;;;;13.07;63.47;101331.69;4922140;29;20032;-77
2021/10/23 09:03:40;;;;;;;0.47;0.30;;;;;;;13.20;63.49;101346.91;4931351;29;20042;-78
2021/10/23 09:06:13;;;;;;;1.45;0.10;;;;;;;13.21;63.73;101331.25;4939401;29;20462;-77
2021/10/23 09:09:00;;;;;;;0.28;0.25;;;;;;;13.35;63.23;101337.19;4941690;29;20133;-77
2021/10/23 09:11:34;;;;;;;0.20;0.20;;;;;;;13.41;63.08;101331.44;4940703;29;20153;-80
2021/10/23 09:14:28;;;;;;;0.20;0.20;;;;;;;13.53;63.31;101333.19;4926661;29;20032;-77
2021/10/23 09:17:12;;;;;;;0.52;0.30;;;;;;;13.64;62.88;101340.41;4921130;29;20032;-77
2021/10/23 09:19:53;;;;;;;0.10;0.10;;;;;;;13.61;62.41;101332.72;4935369;29;20086;-77
2021/10/23 09:22:54;;;;;;;0.40;0.30;;;;;;;13.81;62.28;101344.91;4922521;29;20036;-77
2021/10/23 09:25:28;;;;;;;0.13;0.10;;;;;;;13.79;62.30;101328.69;4889756;29;20123;-78
2021/10/23 09:28:04;;;;;;;1.30;0.30;;;;;;;13.93;62.38;101334.53;4932278;29;20012;-77
2021/10/23 09:30:48;;;;;;;0.50;0.20;;;;;;;14.06;61.66;101339.56;4920758;29;20029;-76
2021/10/23 09:33:20;;;;;;;0.10;0.10;;;;;;;14.20;61.59;101342.66;4935170;29;20028;-75
2021/10/23 09:35:59;;;;;;;1.17;0.40;;;;;;;14.31;61.13;101324.28;4934336;29;20047;-77
2021/10/23 09:38:29;;;;;;;0.20;0.20;;;;;;;14.47;61.17;101330.63;4931980;29;20066;-77
2021/10/23 09:41:07;;;;;;;0.60;0.60;;;;;;;14.54;60.63;101319.38;4931753;29;20470;-78
2021/10/23 09:43:32;;;;;;;0.30;0.30;;;;;;;14.69;60.44;101327.72;4938622;29;20027;-77
2021/10/23 09:45:58;;;;;;;0.50;0.40;;;;;;;14.91;60.50;101341.25;4935912;29;20139;-78
2021/10/23 09:48:57;;;;;;;0.57;0.57;;;;;;;15.15;59.70;101333.28;4929408;29;20500;-78
2021/10/23 09:51:26;;;;;;;0.60;0.60;;;;;;;15.22;59.20;101340.47;4924379;29;20060;-79
2021/10/23 09:53:59;;;;;;;2.20;1.70;;;;;;;15.25;57.69;101334.41;4928743;29;20047;-77
2021/10/23 09:56:35;;;;;;;1.38;1.27;;;;;;;15.15;57.46;101335.22;4929555;29;20336;-76
2021/10/23 09:59:03;;;;;;;1.90;1.00;;;;;;;15.13;56.82;101332.75;4925625;29;20030;-77
2021/10/23 10:01:35;;;;;;;2.78;0.47;;;;;;;15.02;56.07;101342.09;4937555;29;20469;-76
2021/10/23 10:04:16;;;;;;;;;;;;;;;;;;;;;
2021/10/23 10:06:43;;;;;;;0.55;0.38;;;;;;;14.65;56.12;101332.13;4938477;29;20102;-77
2021/10/23 10:09:22;;;;;;;4.22;0.45;;;;;;;14.62;56.19;101332.66;4912427;29;20051;-77
2021/10/23 10:11:53;;;;;;;0.52;0.47;;;;;;;14.56;56.17;101330.94;4940553;29;20070;-77
2021/10/23 10:14:23;;;;;;;0.38;0.20;;;;;;;14.59;56.18;101339.50;4931064;29;20023;-79
2021/10/23 10:16:49;;;;;;;0.52;0.47;;;;;;;14.56;55.27;101333.69;4915619;29;20181;-77
2021/10/23 10:19:19;;;;;;;0.50;0.47;;;;;;;14.47;55.91;101327.88;4933330;29;20023;-77
2021/10/23 10:21:48;;;;;;;0.20;0.15;;;;;;;14.38;56.07;101316.56;4930437;29;20039;-76
2021/10/23 10:24:34;;;;;;;0.57;0.40;;;;;;;14.47;56.42;101325.13;4925863;29;20058;-77
2021/10/23 10:27:44;;;;;;;0.80;0.40;;;;;;;14.58;56.33;101331.53;4937889;29;20035;-77
2021/10/23 10:30:35;;;;;;;0.30;0.10;;;;;;;14.62;56.31;101327.16;4908417;29;20473;-78
2021/10/23 10:33:17;;;;;;;0.30;0.17;;;;;;;14.65;56.62;101326.63;4932821;29;20032;-77
2021/10/23 10:35:55;;;;;;;0.82;0.82;;;;;;;14.54;55.92;101324.91;4916696;29;20028;-78
2021/10/23 10:38:40;;;;;;;0.70;0.30;;;;;;;14.62;56.28;101333.47;4931181;29;20192;-76
2021/10/23 10:44:16;;;;;;;0.20;0.17;;;;;;;14.67;56.90;101329.91;4930238;29;20230;-79
2021/10/23 10:46:56;;;;;;;1.23;0.20;;;;;;;14.70;56.59;101334.88;4928780;29;20028;-78
2021/10/23 10:49:42;;;;;;;0.30;0.20;;;;;;;14.73;56.73;101334.31;4932562;29;20028;-78
2021/10/23 10:52:40;;;;;;;0.30;0.30;;;;;;;14.79;56.75;101333.25;4923459;29;20175;-78
2021/10/23 10:55:16;;;;;;;0.22;0.20;;;;;;;14.86;56.81;101332.16;4920125;29;20068;-75
2021/10/23 10:57:57;;;;;;;0.22;0.20;;;;;;;14.97;56.58;101318.13;4920468;29;20450;-78
2021/10/23 11:00:43;;;;;;;0.60;0.50;;;;;;;14.92;55.75;101317.28;4938150;29;20106;-77
2021/10/23 11:03:44;;;;;;;1.65;0.40;;;;;;;14.87;55.70;101318.13;4915357;29;20022;-77
2021/10/23 11:06:31;;;;;;;1.80;0.70;;;;;;;14.81;55.72;101320.03;4944150;29;20047;-77
2021/10/23 11:09:09;;;;;;;1.88;0.57;;;;;;;14.78;56.24;101319.75;4929301;29;20059;-77
2021/10/23 11:11:43;;;;;;;0.52;0.40;;;;;;;14.88;56.52;101321.69;4943436;29;20028;-77
2021/10/23 11:14:32;;;;;;;0.80;0.60;;;;;;;14.90;56.44;101300.22;4944403;29;20043;-78
2021/10/23 11:17:09;;;;;;;;;;;;;;;;;;;;;
2021/10/23 11:20:01;;;;;;;2.28;0.60;;;;;;;15.07;55.60;101306.31;4934391;29;20103;-77
2021/10/23 11:22:32;;;;;;;0.90;0.40;;;;;;;15.14;55.81;101309.63;4932528;29;20051;-78
2021/10/23 11:25:03;;;;;;;3.65;0.57;;;;;;;15.16;55.41;101310.16;4922045;29;20039;-77
2021/10/23 11:27:29;;;;;;;0.57;0.30;;;;;;;15.25;56.12;101318.69;4936717;29;20395;-77
2021/10/23 11:30:08;;;;;;;0.65;0.45;;;;;;;15.28;55.66;101306.31;4929054;29;20028;-77
2021/10/23 11:32:56;;;;;;;0.77;0.70;;;;;;;15.36;55.34;101314.00;4909738;29;20505;-77
2021/10/23 11:35:40;;;;;;;0.95;0.55;;;;;;;15.32;54.92;101315.69;4923176;29;20095;-78
2021/10/23 11:38:18;;;;;;;0.50;0.40;;;;;;;15.14;54.96;101301.34;4929405;29;20028;-79
2021/10/23 11:40:44;;;;;;;4.18;0.73;;;;;;;15.07;54.94;101303.56;4920845;29;20051;-77
2021/10/23 11:43:15;;;;;;;1.55;0.80;;;;;;;15.03;55.21;101310.69;4930650;29;20040;-77
2021/10/23 11:45:44;;;;;;;0.63;0.60;;;;;;;14.96;55.24;101299.13;4919243;29;20038;-78
2021/10/23 11:48:11;;;;;;;1.80;0.93;;;;;;;14.84;55.36;101297.47;4918294;29;20079;-77